sensor_id;sensor_type;location;lat;lon;timestamp;temperature;humidity
47590;DHT22;33316;52.298;9.056;2022-08-04T00:00:29;25.20;60.90
47590;DHT22;33316;52.298;9.056;2022-08-04T00:03:15;25.20;60.90
47590;DHT22;33316;52.298;9.056;2022-08-04T00:06:03;25.10;61.20
47590;DHT22;33316;52.298;9.056;2022-08-04T00:08:45;25.10;61.20
47590;DHT22;33316;52.298;9.056;2022-08-04T00:11:20;25.10;62.10
47590;DHT22;33316;52.298;9.056;2022-08-04T00:13:53;25.00;61.30
47590;DHT22;33316;52.298;9.056;2022-08-04T00:16:22;25.00;61.40
47590;DHT22;33316;52.298;9.056;2022-08-04T00:18:54;24.90;61.40
47590;DHT22;33316;52.298;9.056;2022-08-04T00:21:24;24.90;61.70
47590;DHT22;33316;52.298;9.056;2022-08-04T00:23:51;24.80;61.80
47590;DHT22;33316;52.298;9.056;2022-08-04T00:26:18;24.80;62.00
47590;DHT22;33316;52.298;9.056;2022-08-04T00:28:45;24.70;62.20
47590;DHT22;33316;52.298;9.056;2022-08-04T00:31:14;24.70;62.20
47590;DHT22;33316;52.298;9.056;2022-08-04T00:33:43;24.60;62.40
47590;DHT22;33316;52.298;9.056;2022-08-04T00:36:11;24.60;62.60
47590;DHT22;33316;52.298;9.056;2022-08-04T00:38:40;24.60;62.80
47590;DHT22;33316;52.298;9.056;2022-08-04T00:43:36;24.50;62.90
47590;DHT22;33316;52.298;9.056;2022-08-04T00:49:32;24.50;63.30
47590;DHT22;33316;52.298;9.056;2022-08-04T00:55:14;24.40;63.70
47590;DHT22;33316;52.298;9.056;2022-08-04T00:58:02;24.40;63.60
47590;DHT22;33316;52.298;9.056;2022-08-04T01:01:00;24.40;63.80
47590;DHT22;33316;52.298;9.056;2022-08-04T01:06:28;24.30;63.80
47590;DHT22;33316;52.298;9.056;2022-08-04T01:11:48;24.20;64.10
47590;DHT22;33316;52.298;9.056;2022-08-04T01:20:04;24.10;64.60
47590;DHT22;33316;52.298;9.056;2022-08-04T01:30:57;24.00;64.60
47590;DHT22;33316;52.298;9.056;2022-08-04T01:33:28;24.00;64.40
47590;DHT22;33316;52.298;9.056;2022-08-04T01:35:55;24.00;64.60
47590;DHT22;33316;52.298;9.056;2022-08-04T01:38:35;23.90;64.60
47590;DHT22;33316;52.298;9.056;2022-08-04T01:41:13;23.90;65.00
47590;DHT22;33316;52.298;9.056;2022-08-04T01:43:43;23.90;65.10
47590;DHT22;33316;52.298;9.056;2022-08-04T01:46:14;23.80;65.30
47590;DHT22;33316;52.298;9.056;2022-08-04T01:48:44;23.80;65.40
47590;DHT22;33316;52.298;9.056;2022-08-04T01:51:10;23.80;66.10
47590;DHT22;33316;52.298;9.056;2022-08-04T01:53:38;23.70;65.40
47590;DHT22;33316;52.298;9.056;2022-08-04T01:56:06;23.70;65.50
47590;DHT22;33316;52.298;9.056;2022-08-04T01:58:33;23.70;65.60
47590;DHT22;33316;52.298;9.056;2022-08-04T02:01:12;23.70;65.80
47590;DHT22;33316;52.298;9.056;2022-08-04T02:03:40;23.70;66.20
47590;DHT22;33316;52.298;9.056;2022-08-04T02:11:28;23.50;66.40
47590;DHT22;33316;52.298;9.056;2022-08-04T02:16:49;23.50;66.60
47590;DHT22;33316;52.298;9.056;2022-08-04T02:22:17;23.40;67.00
47590;DHT22;33316;52.298;9.056;2022-08-04T02:24:57;23.40;66.70
47590;DHT22;33316;52.298;9.056;2022-08-04T02:27:37;23.40;67.00
47590;DHT22;33316;52.298;9.056;2022-08-04T02:30:05;23.40;67.00
47590;DHT22;33316;52.298;9.056;2022-08-04T02:32:33;23.40;67.00
47590;DHT22;33316;52.298;9.056;2022-08-04T02:35:13;23.30;67.70
47590;DHT22;33316;52.298;9.056;2022-08-04T02:37:46;23.30;67.00
47590;DHT22;33316;52.298;9.056;2022-08-04T02:40:11;23.30;67.00
47590;DHT22;33316;52.298;9.056;2022-08-04T02:42:37;23.20;66.90
47590;DHT22;33316;52.298;9.056;2022-08-04T02:45:04;23.20;66.90
47590;DHT22;33316;52.298;9.056;2022-08-04T02:47:31;23.20;67.00
47590;DHT22;33316;52.298;9.056;2022-08-04T02:49:58;23.20;67.00
47590;DHT22;33316;52.298;9.056;2022-08-04T02:52:25;23.20;67.00
47590;DHT22;33316;52.298;9.056;2022-08-04T02:54:53;23.20;67.00
47590;DHT22;33316;52.298;9.056;2022-08-04T02:57:22;23.20;67.10
47590;DHT22;33316;52.298;9.056;2022-08-04T03:00:08;23.20;67.10
47590;DHT22;33316;52.298;9.056;2022-08-04T03:22:09;23.10;67.00
47590;DHT22;33316;52.298;9.056;2022-08-04T03:33:49;23.00;66.90
47590;DHT22;33316;52.298;9.056;2022-08-04T03:50:35;22.90;67.40
47590;DHT22;33316;52.298;9.056;2022-08-04T03:58:52;22.90;67.60
47590;DHT22;33316;52.298;9.056;2022-08-04T04:04:43;22.80;67.70
47590;DHT22;33316;52.298;9.056;2022-08-04T04:07:55;22.80;67.70
47590;DHT22;33316;52.298;9.056;2022-08-04T04:16:15;22.80;67.80
47590;DHT22;33316;52.298;9.056;2022-08-04T04:36:27;22.70;67.90
47590;DHT22;33316;52.298;9.056;2022-08-04T04:39:09;22.70;67.80
47590;DHT22;33316;52.298;9.056;2022-08-04T04:47:48;22.70;68.00
47590;DHT22;33316;52.298;9.056;2022-08-04T04:56:15;22.80;68.40
47590;DHT22;33316;52.298;9.056;2022-08-04T04:58:42;22.80;68.40
47590;DHT22;33316;52.298;9.056;2022-08-04T05:01:16;22.80;68.40
47590;DHT22;33316;52.298;9.056;2022-08-04T05:04:14;22.90;68.40
47590;DHT22;33316;52.298;9.056;2022-08-04T05:10:02;22.90;68.50
47590;DHT22;33316;52.298;9.056;2022-08-04T05:15:25;23.00;68.50
47590;DHT22;33316;52.298;9.056;2022-08-04T05:17:54;23.00;68.30
47590;DHT22;33316;52.298;9.056;2022-08-04T05:20:25;23.00;68.20
47590;DHT22;33316;52.298;9.056;2022-08-04T05:22:59;23.10;68.30
47590;DHT22;33316;52.298;9.056;2022-08-04T05:25:38;23.10;68.20
47590;DHT22;33316;52.298;9.056;2022-08-04T05:30:40;23.20;68.20
47590;DHT22;33316;52.298;9.056;2022-08-04T05:36:02;23.50;68.00
47590;DHT22;33316;52.298;9.056;2022-08-04T05:38:35;23.70;67.80
47590;DHT22;33316;52.298;9.056;2022-08-04T05:41:02;23.90;67.30
47590;DHT22;33316;52.298;9.056;2022-08-04T05:43:28;24.10;66.90
47590;DHT22;33316;52.298;9.056;2022-08-04T05:45:55;24.20;66.60
47590;DHT22;33316;52.298;9.056;2022-08-04T05:48:23;24.30;66.30
47590;DHT22;33316;52.298;9.056;2022-08-04T05:50:49;24.40;66.10
47590;DHT22;33316;52.298;9.056;2022-08-04T05:53:15;24.50;65.70
47590;DHT22;33316;52.298;9.056;2022-08-04T05:55:42;24.60;65.60
47590;DHT22;33316;52.298;9.056;2022-08-04T05:58:09;24.60;65.60
47590;DHT22;33316;52.298;9.056;2022-08-04T06:00:36;24.70;65.80
47590;DHT22;33316;52.298;9.056;2022-08-04T06:03:03;24.80;65.90
47590;DHT22;33316;52.298;9.056;2022-08-04T06:05:30;25.00;65.80
47590;DHT22;33316;52.298;9.056;2022-08-04T06:07:59;25.10;65.40
47590;DHT22;33316;52.298;9.056;2022-08-04T06:10:25;25.30;65.20
47590;DHT22;33316;52.298;9.056;2022-08-04T06:12:54;25.40;65.20
47590;DHT22;33316;52.298;9.056;2022-08-04T06:15:22;25.50;65.00
47590;DHT22;33316;52.298;9.056;2022-08-04T06:17:52;25.70;64.30
47590;DHT22;33316;52.298;9.056;2022-08-04T06:20:19;25.90;64.20
47590;DHT22;33316;52.298;9.056;2022-08-04T06:22:51;26.10;64.50
47590;DHT22;33316;52.298;9.056;2022-08-04T06:25:21;26.10;64.10
47590;DHT22;33316;52.298;9.056;2022-08-04T06:27:48;26.10;63.80
47590;DHT22;33316;52.298;9.056;2022-08-04T06:30:15;26.00;63.60
47590;DHT22;33316;52.298;9.056;2022-08-04T06:32:44;25.90;63.90
47590;DHT22;33316;52.298;9.056;2022-08-04T06:35:16;25.80;64.00
47590;DHT22;33316;52.298;9.056;2022-08-04T06:37:44;25.90;64.20
47590;DHT22;33316;52.298;9.056;2022-08-04T06:40:15;26.10;64.30
47590;DHT22;33316;52.298;9.056;2022-08-04T06:42:42;26.30;64.00
47590;DHT22;33316;52.298;9.056;2022-08-04T06:45:09;26.40;64.50
47590;DHT22;33316;52.298;9.056;2022-08-04T06:47:37;26.60;63.60
47590;DHT22;33316;52.298;9.056;2022-08-04T06:50:05;26.60;63.20
47590;DHT22;33316;52.298;9.056;2022-08-04T06:52:30;26.70;63.20
47590;DHT22;33316;52.298;9.056;2022-08-04T06:54:56;26.80;63.00
47590;DHT22;33316;52.298;9.056;2022-08-04T06:57:26;26.90;62.80
47590;DHT22;33316;52.298;9.056;2022-08-04T07:00:12;26.90;62.30
47590;DHT22;33316;52.298;9.056;2022-08-04T07:02:41;27.00;61.70
47590;DHT22;33316;52.298;9.056;2022-08-04T07:05:09;27.10;61.40
47590;DHT22;33316;52.298;9.056;2022-08-04T07:07:35;27.20;60.80
47590;DHT22;33316;52.298;9.056;2022-08-04T07:10:01;27.20;60.50
47590;DHT22;33316;52.298;9.056;2022-08-04T07:12:27;27.10;60.50
47590;DHT22;33316;52.298;9.056;2022-08-04T07:14:53;27.10;60.70
47590;DHT22;33316;52.298;9.056;2022-08-04T07:17:20;27.10;61.00
47590;DHT22;33316;52.298;9.056;2022-08-04T07:19:46;27.10;61.10
47590;DHT22;33316;52.298;9.056;2022-08-04T07:22:12;27.10;61.50
47590;DHT22;33316;52.298;9.056;2022-08-04T07:24:41;27.20;61.80
47590;DHT22;33316;52.298;9.056;2022-08-04T07:27:06;27.20;61.30
47590;DHT22;33316;52.298;9.056;2022-08-04T07:29:35;27.30;61.00
47590;DHT22;33316;52.298;9.056;2022-08-04T07:32:02;27.50;60.40
47590;DHT22;33316;52.298;9.056;2022-08-04T07:34:29;27.70;59.70
47590;DHT22;33316;52.298;9.056;2022-08-04T07:36:57;27.80;59.20
47590;DHT22;33316;52.298;9.056;2022-08-04T07:39:26;27.90;58.70
47590;DHT22;33316;52.298;9.056;2022-08-04T07:41:53;28.00;58.20
47590;DHT22;33316;52.298;9.056;2022-08-04T07:44:20;28.10;57.40
47590;DHT22;33316;52.298;9.056;2022-08-04T07:46:46;28.20;55.80
47590;DHT22;33316;52.298;9.056;2022-08-04T07:49:12;28.30;55.20
47590;DHT22;33316;52.298;9.056;2022-08-04T07:51:39;28.40;55.10
47590;DHT22;33316;52.298;9.056;2022-08-04T07:54:06;28.50;54.60
47590;DHT22;33316;52.298;9.056;2022-08-04T07:56:35;28.60;53.80
47590;DHT22;33316;52.298;9.056;2022-08-04T07:59:02;28.70;52.90
47590;DHT22;33316;52.298;9.056;2022-08-04T08:01:28;28.80;52.20
47590;DHT22;33316;52.298;9.056;2022-08-04T08:03:55;28.90;51.40
47590;DHT22;33316;52.298;9.056;2022-08-04T08:06:22;29.00;51.00
47590;DHT22;33316;52.298;9.056;2022-08-04T08:08:48;29.00;50.90
47590;DHT22;33316;52.298;9.056;2022-08-04T08:11:15;29.10;51.00
47590;DHT22;33316;52.298;9.056;2022-08-04T08:13:41;29.10;50.50
47590;DHT22;33316;52.298;9.056;2022-08-04T08:16:08;29.20;50.30
47590;DHT22;33316;52.298;9.056;2022-08-04T08:18:34;29.30;50.30
47590;DHT22;33316;52.298;9.056;2022-08-04T08:20:59;29.30;50.40
47590;DHT22;33316;52.298;9.056;2022-08-04T08:23:25;29.40;50.00
47590;DHT22;33316;52.298;9.056;2022-08-04T08:25:51;29.50;49.80
47590;DHT22;33316;52.298;9.056;2022-08-04T08:28:17;29.50;49.70
47590;DHT22;33316;52.298;9.056;2022-08-04T08:30:42;29.60;49.80
47590;DHT22;33316;52.298;9.056;2022-08-04T08:33:12;29.70;49.80
47590;DHT22;33316;52.298;9.056;2022-08-04T08:38:13;29.80;49.40
47590;DHT22;33316;52.298;9.056;2022-08-04T08:40:52;29.80;49.10
47590;DHT22;33316;52.298;9.056;2022-08-04T08:48:46;30.10;48.30
47590;DHT22;33316;52.298;9.056;2022-08-04T08:51:54;30.20;48.30
47590;DHT22;33316;52.298;9.056;2022-08-04T08:54:53;30.30;48.40
47590;DHT22;33316;52.298;9.056;2022-08-04T08:57:45;30.40;48.50
47590;DHT22;33316;52.298;9.056;2022-08-04T09:00:19;30.50;48.20
47590;DHT22;33316;52.298;9.056;2022-08-04T09:03:26;30.60;47.90
47590;DHT22;33316;52.298;9.056;2022-08-04T09:08:47;30.70;47.50
47590;DHT22;33316;52.298;9.056;2022-08-04T09:11:19;30.80;47.30
47590;DHT22;33316;52.298;9.056;2022-08-04T09:14:04;30.90;47.10
47590;DHT22;33316;52.298;9.056;2022-08-04T09:16:41;30.90;46.70
47590;DHT22;33316;52.298;9.056;2022-08-04T09:19:14;31.00;46.10
47590;DHT22;33316;52.298;9.056;2022-08-04T09:21:58;31.10;46.60
47590;DHT22;33316;52.298;9.056;2022-08-04T09:27:24;31.30;45.70
47590;DHT22;33316;52.298;9.056;2022-08-04T09:30:06;31.30;46.20
47590;DHT22;33316;52.298;9.056;2022-08-04T09:32:40;31.40;45.50
47590;DHT22;33316;52.298;9.056;2022-08-04T09:35:39;31.50;45.30
47590;DHT22;33316;52.298;9.056;2022-08-04T09:38:17;31.60;44.70
47590;DHT22;33316;52.298;9.056;2022-08-04T09:57:22;32.00;43.80
47590;DHT22;33316;52.298;9.056;2022-08-04T10:00:00;32.10;43.90
47590;DHT22;33316;52.298;9.056;2022-08-04T10:02:30;32.20;43.80
47590;DHT22;33316;52.298;9.056;2022-08-04T10:04:58;32.20;43.60
47590;DHT22;33316;52.298;9.056;2022-08-04T10:16:03;32.40;42.80
47590;DHT22;33316;52.298;9.056;2022-08-04T10:27:08;32.60;42.50
47590;DHT22;33316;52.298;9.056;2022-08-04T10:29:45;32.60;42.90
47590;DHT22;33316;52.298;9.056;2022-08-04T10:37:22;32.80;42.30
47590;DHT22;33316;52.298;9.056;2022-08-04T10:39:55;32.80;42.50
47590;DHT22;33316;52.298;9.056;2022-08-04T10:46:23;32.90;42.30
47590;DHT22;33316;52.298;9.056;2022-08-04T10:48:48;33.00;42.00
47590;DHT22;33316;52.298;9.056;2022-08-04T10:53:59;33.10;41.70
47590;DHT22;33316;52.298;9.056;2022-08-04T10:56:32;33.20;41.80
47590;DHT22;33316;52.298;9.056;2022-08-04T10:59:15;33.20;41.70
47590;DHT22;33316;52.298;9.056;2022-08-04T11:01:44;33.30;41.20
47590;DHT22;33316;52.298;9.056;2022-08-04T11:04:24;33.30;41.60
47590;DHT22;33316;52.298;9.056;2022-08-04T11:06:52;33.40;41.20
47590;DHT22;33316;52.298;9.056;2022-08-04T11:09:19;33.40;41.40
47590;DHT22;33316;52.298;9.056;2022-08-04T11:11:52;33.50;41.30
47590;DHT22;33316;52.298;9.056;2022-08-04T11:14:28;33.50;40.70
47590;DHT22;33316;52.298;9.056;2022-08-04T11:17:49;33.60;40.40
47590;DHT22;33316;52.298;9.056;2022-08-04T11:20:29;33.60;40.00
47590;DHT22;33316;52.298;9.056;2022-08-04T11:31:07;33.90;39.90
47590;DHT22;33316;52.298;9.056;2022-08-04T11:36:14;34.00;39.20
47590;DHT22;33316;52.298;9.056;2022-08-04T11:39:14;34.00;38.90
47590;DHT22;33316;52.298;9.056;2022-08-04T11:41:51;34.10;39.00
47590;DHT22;33316;52.298;9.056;2022-08-04T11:44:42;34.10;39.00
47590;DHT22;33316;52.298;9.056;2022-08-04T11:47:28;34.10;38.60
47590;DHT22;33316;52.298;9.056;2022-08-04T11:50:06;34.20;39.10
47590;DHT22;33316;52.298;9.056;2022-08-04T11:52:33;34.30;38.80
47590;DHT22;33316;52.298;9.056;2022-08-04T11:55:04;34.30;39.00
47590;DHT22;33316;52.298;9.056;2022-08-04T11:57:31;34.30;38.30
47590;DHT22;33316;52.298;9.056;2022-08-04T11:59:57;34.30;38.00
47590;DHT22;33316;52.298;9.056;2022-08-04T12:02:39;34.30;38.00
47590;DHT22;33316;52.298;9.056;2022-08-04T12:05:08;34.40;37.50
47590;DHT22;33316;52.298;9.056;2022-08-04T12:16:33;34.60;37.20
47590;DHT22;33316;52.298;9.056;2022-08-04T12:19:02;34.60;37.60
47590;DHT22;33316;52.298;9.056;2022-08-04T12:21:47;34.60;37.40
47590;DHT22;33316;52.298;9.056;2022-08-04T12:24:17;34.70;36.90
47590;DHT22;33316;52.298;9.056;2022-08-04T12:26:49;34.60;36.80
47590;DHT22;33316;52.298;9.056;2022-08-04T12:29:17;34.70;36.60
47590;DHT22;33316;52.298;9.056;2022-08-04T12:31:50;34.70;36.80
47590;DHT22;33316;52.298;9.056;2022-08-04T12:34:23;34.70;37.10
47590;DHT22;33316;52.298;9.056;2022-08-04T12:36:55;34.70;37.30
47590;DHT22;33316;52.298;9.056;2022-08-04T12:39:24;34.80;37.40
47590;DHT22;33316;52.298;9.056;2022-08-04T12:41:59;34.80;37.30
47590;DHT22;33316;52.298;9.056;2022-08-04T12:44:32;34.80;37.00
47590;DHT22;33316;52.298;9.056;2022-08-04T12:46:58;34.90;36.90
47590;DHT22;33316;52.298;9.056;2022-08-04T12:49:26;34.90;36.90
47590;DHT22;33316;52.298;9.056;2022-08-04T12:51:53;34.90;37.30
47590;DHT22;33316;52.298;9.056;2022-08-04T12:54:24;34.90;37.40
47590;DHT22;33316;52.298;9.056;2022-08-04T12:56:50;34.90;37.30
47590;DHT22;33316;52.298;9.056;2022-08-04T12:59:16;34.90;37.10
47590;DHT22;33316;52.298;9.056;2022-08-04T13:01:48;34.90;36.90
47590;DHT22;33316;52.298;9.056;2022-08-04T13:04:18;34.90;36.70
47590;DHT22;33316;52.298;9.056;2022-08-04T13:06:52;34.90;36.60
47590;DHT22;33316;52.298;9.056;2022-08-04T13:09:22;34.90;36.00
47590;DHT22;33316;52.298;9.056;2022-08-04T13:11:54;34.90;36.70
47590;DHT22;33316;52.298;9.056;2022-08-04T13:14:22;34.90;37.00
47590;DHT22;33316;52.298;9.056;2022-08-04T13:16:56;34.90;37.10
47590;DHT22;33316;52.298;9.056;2022-08-04T13:19:22;34.90;36.60
47590;DHT22;33316;52.298;9.056;2022-08-04T13:21:50;34.90;36.80
47590;DHT22;33316;52.298;9.056;2022-08-04T13:24:18;34.90;36.70
47590;DHT22;33316;52.298;9.056;2022-08-04T13:27:05;35.00;36.70
47590;DHT22;33316;52.298;9.056;2022-08-04T13:29:44;34.90;36.10
47590;DHT22;33316;52.298;9.056;2022-08-04T13:32:16;35.00;36.80
47590;DHT22;33316;52.298;9.056;2022-08-04T13:34:43;35.00;36.80
47590;DHT22;33316;52.298;9.056;2022-08-04T13:37:13;35.00;36.50
47590;DHT22;33316;52.298;9.056;2022-08-04T13:39:44;35.00;36.60
47590;DHT22;33316;52.298;9.056;2022-08-04T13:42:11;35.00;36.60
47590;DHT22;33316;52.298;9.056;2022-08-04T13:44:38;35.00;36.60
47590;DHT22;33316;52.298;9.056;2022-08-04T13:47:09;35.00;36.50
47590;DHT22;33316;52.298;9.056;2022-08-04T13:49:36;34.90;36.60
47590;DHT22;33316;52.298;9.056;2022-08-04T13:52:04;34.90;36.10
47590;DHT22;33316;52.298;9.056;2022-08-04T13:54:39;34.90;35.70
47590;DHT22;33316;52.298;9.056;2022-08-04T13:57:28;34.90;35.30
47590;DHT22;33316;52.298;9.056;2022-08-04T13:59:59;34.90;35.10
47590;DHT22;33316;52.298;9.056;2022-08-04T14:02:42;34.90;34.80
47590;DHT22;33316;52.298;9.056;2022-08-04T14:05:18;34.90;34.90
47590;DHT22;33316;52.298;9.056;2022-08-04T14:07:51;34.90;34.30
47590;DHT22;33316;52.298;9.056;2022-08-04T14:10:18;34.90;34.40
47590;DHT22;33316;52.298;9.056;2022-08-04T14:12:49;34.90;34.00
47590;DHT22;33316;52.298;9.056;2022-08-04T14:15:28;34.80;33.60
47590;DHT22;33316;52.298;9.056;2022-08-04T14:18:25;34.80;32.90
47590;DHT22;33316;52.298;9.056;2022-08-04T14:23:37;34.70;33.70
47590;DHT22;33316;52.298;9.056;2022-08-04T14:28:54;34.60;33.00
47590;DHT22;33316;52.298;9.056;2022-08-04T14:31:23;34.60;34.60
47590;DHT22;33316;52.298;9.056;2022-08-04T14:33:50;34.60;33.70
47590;DHT22;33316;52.298;9.056;2022-08-04T14:36:17;34.60;33.80
47590;DHT22;33316;52.298;9.056;2022-08-04T14:39:03;34.60;34.20
47590;DHT22;33316;52.298;9.056;2022-08-04T14:41:47;34.60;34.70
47590;DHT22;33316;52.298;9.056;2022-08-04T14:44:13;34.60;35.10
47590;DHT22;33316;52.298;9.056;2022-08-04T14:46:53;34.60;34.90
47590;DHT22;33316;52.298;9.056;2022-08-04T14:49:19;34.60;34.50
47590;DHT22;33316;52.298;9.056;2022-08-04T14:51:54;34.60;35.70
47590;DHT22;33316;52.298;9.056;2022-08-04T14:54:32;34.60;34.90
47590;DHT22;33316;52.298;9.056;2022-08-04T14:57:02;34.50;35.10
47590;DHT22;33316;52.298;9.056;2022-08-04T14:59:48;34.50;35.50
47590;DHT22;33316;52.298;9.056;2022-08-04T15:02:15;34.50;37.90
47590;DHT22;33316;52.298;9.056;2022-08-04T15:04:42;34.30;39.10
47590;DHT22;33316;52.298;9.056;2022-08-04T15:07:09;34.20;40.00
47590;DHT22;33316;52.298;9.056;2022-08-04T15:09:35;34.00;40.90
47590;DHT22;33316;52.298;9.056;2022-08-04T15:12:02;34.00;41.60
47590;DHT22;33316;52.298;9.056;2022-08-04T15:14:29;33.90;42.00
47590;DHT22;33316;52.298;9.056;2022-08-04T15:16:56;33.80;42.40
47590;DHT22;33316;52.298;9.056;2022-08-04T15:19:22;33.70;42.60
47590;DHT22;33316;52.298;9.056;2022-08-04T15:21:48;33.60;42.70
47590;DHT22;33316;52.298;9.056;2022-08-04T15:24:14;33.50;42.90
47590;DHT22;33316;52.298;9.056;2022-08-04T15:26:47;33.40;43.20
47590;DHT22;33316;52.298;9.056;2022-08-04T15:29:18;33.30;43.50
47590;DHT22;33316;52.298;9.056;2022-08-04T15:31:45;33.30;43.80
47590;DHT22;33316;52.298;9.056;2022-08-04T15:34:12;33.20;43.60
47590;DHT22;33316;52.298;9.056;2022-08-04T15:37:02;33.10;43.60
47590;DHT22;33316;52.298;9.056;2022-08-04T15:39:46;33.00;44.00
47590;DHT22;33316;52.298;9.056;2022-08-04T15:45:03;32.80;44.00
47590;DHT22;33316;52.298;9.056;2022-08-04T15:47:29;32.80;44.30
47590;DHT22;33316;52.298;9.056;2022-08-04T15:50:09;32.70;44.30
47590;DHT22;33316;52.298;9.056;2022-08-04T15:55:33;32.60;44.70
47590;DHT22;33316;52.298;9.056;2022-08-04T15:58:01;32.50;44.60
47590;DHT22;33316;52.298;9.056;2022-08-04T16:00:28;32.50;44.70
47590;DHT22;33316;52.298;9.056;2022-08-04T16:16:29;32.10;45.30
47590;DHT22;33316;52.298;9.056;2022-08-04T16:19:25;32.00;45.40
47590;DHT22;33316;52.298;9.056;2022-08-04T16:21:52;31.90;45.60
47590;DHT22;33316;52.298;9.056;2022-08-04T16:24:20;31.90;45.90
47590;DHT22;33316;52.298;9.056;2022-08-04T16:26:54;31.90;45.80
47590;DHT22;33316;52.298;9.056;2022-08-04T16:29:40;31.80;45.80
47590;DHT22;33316;52.298;9.056;2022-08-04T16:37:13;31.70;46.10
47590;DHT22;33316;52.298;9.056;2022-08-04T16:39:40;31.70;46.20
47590;DHT22;33316;52.298;9.056;2022-08-04T16:42:31;31.70;46.30
47590;DHT22;33316;52.298;9.056;2022-08-04T16:50:14;31.60;46.70
47590;DHT22;33316;52.298;9.056;2022-08-04T16:52:46;31.60;46.70
47590;DHT22;33316;52.298;9.056;2022-08-04T16:55:15;31.50;46.90
47590;DHT22;33316;52.298;9.056;2022-08-04T16:57:45;31.60;46.90
47590;DHT22;33316;52.298;9.056;2022-08-04T17:00:11;31.50;46.80
47590;DHT22;33316;52.298;9.056;2022-08-04T17:02:37;31.50;47.10
47590;DHT22;33316;52.298;9.056;2022-08-04T17:05:04;31.40;47.10
47590;DHT22;33316;52.298;9.056;2022-08-04T17:07:48;31.30;47.30
47590;DHT22;33316;52.298;9.056;2022-08-04T17:10:14;31.30;47.60
47590;DHT22;33316;52.298;9.056;2022-08-04T17:12:40;31.30;47.70
47590;DHT22;33316;52.298;9.056;2022-08-04T17:15:19;31.30;47.80
47590;DHT22;33316;52.298;9.056;2022-08-04T17:17:45;31.20;47.90
47590;DHT22;33316;52.298;9.056;2022-08-04T17:20:11;31.20;48.00
47590;DHT22;33316;52.298;9.056;2022-08-04T17:22:38;31.10;48.10
47590;DHT22;33316;52.298;9.056;2022-08-04T17:25:04;31.10;48.20
47590;DHT22;33316;52.298;9.056;2022-08-04T17:27:29;31.10;48.30
47590;DHT22;33316;52.298;9.056;2022-08-04T17:29:55;31.00;48.40
47590;DHT22;33316;52.298;9.056;2022-08-04T17:32:21;31.00;49.20
47590;DHT22;33316;52.298;9.056;2022-08-04T17:34:48;31.00;48.90
47590;DHT22;33316;52.298;9.056;2022-08-04T17:37:14;30.90;49.10
47590;DHT22;33316;52.298;9.056;2022-08-04T17:39:40;30.80;49.20
47590;DHT22;33316;52.298;9.056;2022-08-04T17:42:06;30.70;49.30
47590;DHT22;33316;52.298;9.056;2022-08-04T17:44:36;30.70;49.50
47590;DHT22;33316;52.298;9.056;2022-08-04T17:47:15;30.60;49.60
47590;DHT22;33316;52.298;9.056;2022-08-04T17:49:42;30.60;49.90
47590;DHT22;33316;52.298;9.056;2022-08-04T17:52:18;30.50;49.90
47590;DHT22;33316;52.298;9.056;2022-08-04T17:54:44;30.40;50.10
47590;DHT22;33316;52.298;9.056;2022-08-04T17:57:16;30.40;50.20
47590;DHT22;33316;52.298;9.056;2022-08-04T17:59:44;30.30;50.30
47590;DHT22;33316;52.298;9.056;2022-08-04T18:02:11;30.30;51.00
47590;DHT22;33316;52.298;9.056;2022-08-04T18:04:57;30.30;50.50
47590;DHT22;33316;52.298;9.056;2022-08-04T18:07:33;30.20;50.70
47590;DHT22;33316;52.298;9.056;2022-08-04T18:10:00;30.10;50.70
47590;DHT22;33316;52.298;9.056;2022-08-04T18:12:28;30.10;50.80
47590;DHT22;33316;52.298;9.056;2022-08-04T18:14:59;30.00;51.00
47590;DHT22;33316;52.298;9.056;2022-08-04T18:17:40;29.90;51.10
47590;DHT22;33316;52.298;9.056;2022-08-04T18:20:12;29.90;51.20
47590;DHT22;33316;52.298;9.056;2022-08-04T18:22:39;29.90;51.20
47590;DHT22;33316;52.298;9.056;2022-08-04T18:25:09;29.80;51.20
47590;DHT22;33316;52.298;9.056;2022-08-04T18:27:50;29.80;51.30
47590;DHT22;33316;52.298;9.056;2022-08-04T18:30:16;29.70;51.40
47590;DHT22;33316;52.298;9.056;2022-08-04T18:32:42;29.70;51.20
47590;DHT22;33316;52.298;9.056;2022-08-04T18:35:08;29.70;51.30
47590;DHT22;33316;52.298;9.056;2022-08-04T18:37:36;29.60;51.40
47590;DHT22;33316;52.298;9.056;2022-08-04T18:40:11;29.60;51.60
47590;DHT22;33316;52.298;9.056;2022-08-04T18:42:38;29.50;51.80
47590;DHT22;33316;52.298;9.056;2022-08-04T18:45:04;29.50;51.90
47590;DHT22;33316;52.298;9.056;2022-08-04T18:47:30;29.50;52.00
47590;DHT22;33316;52.298;9.056;2022-08-04T18:49:56;29.50;52.10
47590;DHT22;33316;52.298;9.056;2022-08-04T18:52:22;29.40;52.10
47590;DHT22;33316;52.298;9.056;2022-08-04T18:54:48;29.40;52.10
47590;DHT22;33316;52.298;9.056;2022-08-04T18:57:19;29.40;52.30
47590;DHT22;33316;52.298;9.056;2022-08-04T18:59:44;29.40;52.30
47590;DHT22;33316;52.298;9.056;2022-08-04T19:02:10;29.30;52.30
47590;DHT22;33316;52.298;9.056;2022-08-04T19:04:35;29.30;52.30
47590;DHT22;33316;52.298;9.056;2022-08-04T19:07:01;29.30;52.40
47590;DHT22;33316;52.298;9.056;2022-08-04T19:09:27;29.20;52.40
47590;DHT22;33316;52.298;9.056;2022-08-04T19:11:52;29.20;52.40
47590;DHT22;33316;52.298;9.056;2022-08-04T19:14:18;29.20;52.60
47590;DHT22;33316;52.298;9.056;2022-08-04T19:16:44;29.10;52.50
47590;DHT22;33316;52.298;9.056;2022-08-04T19:19:12;29.10;52.70
47590;DHT22;33316;52.298;9.056;2022-08-04T19:21:39;29.10;52.80
47590;DHT22;33316;52.298;9.056;2022-08-04T19:24:05;29.00;52.80
47590;DHT22;33316;52.298;9.056;2022-08-04T19:26:31;29.00;53.00
47590;DHT22;33316;52.298;9.056;2022-08-04T19:28:57;29.00;53.30
47590;DHT22;33316;52.298;9.056;2022-08-04T19:31:23;29.00;53.50
47590;DHT22;33316;52.298;9.056;2022-08-04T19:33:49;28.90;53.80
47590;DHT22;33316;52.298;9.056;2022-08-04T19:36:15;28.80;53.80
47590;DHT22;33316;52.298;9.056;2022-08-04T19:38:41;28.80;54.00
47590;DHT22;33316;52.298;9.056;2022-08-04T19:41:08;28.70;54.20
47590;DHT22;33316;52.298;9.056;2022-08-04T19:43:34;28.70;54.30
47590;DHT22;33316;52.298;9.056;2022-08-04T19:46:01;28.70;54.50
47590;DHT22;33316;52.298;9.056;2022-08-04T19:48:27;28.70;54.70
47590;DHT22;33316;52.298;9.056;2022-08-04T19:50:53;28.70;55.00
47590;DHT22;33316;52.298;9.056;2022-08-04T19:53:19;28.60;55.00
47590;DHT22;33316;52.298;9.056;2022-08-04T19:55:45;28.60;55.30
47590;DHT22;33316;52.298;9.056;2022-08-04T19:58:11;28.60;55.50
47590;DHT22;33316;52.298;9.056;2022-08-04T20:00:38;28.50;55.60
47590;DHT22;33316;52.298;9.056;2022-08-04T20:03:06;28.50;55.80
47590;DHT22;33316;52.298;9.056;2022-08-04T20:05:32;28.50;56.10
47590;DHT22;33316;52.298;9.056;2022-08-04T20:07:57;28.40;56.10